sensor_id;sensor_type;location;lat;lon;timestamp;temperature;humidity
10030;DHT22;5055;52.054;8.524;2023-05-24T00:01:00;6.60;97.00
10030;DHT22;5055;52.054;8.524;2023-05-24T00:03:30;6.60;97.00
10030;DHT22;5055;52.054;8.524;2023-05-24T00:06:01;6.50;97.00
10030;DHT22;5055;52.054;8.524;2023-05-24T00:08:29;6.60;97.00
10030;DHT22;5055;52.054;8.524;2023-05-24T00:10:58;6.60;97.00
10030;DHT22;5055;52.054;8.524;2023-05-24T00:13:26;6.50;97.00
10030;DHT22;5055;52.054;8.524;2023-05-24T00:15:55;6.50;97.00
10030;DHT22;5055;52.054;8.524;2023-05-24T00:18:23;6.50;97.00
10030;DHT22;5055;52.054;8.524;2023-05-24T00:20:53;6.50;97.00
10030;DHT22;5055;52.054;8.524;2023-05-24T00:23:23;6.40;97.00
10030;DHT22;5055;52.054;8.524;2023-05-24T00:25:52;6.40;97.00
10030;DHT22;5055;52.054;8.524;2023-05-24T00:28:20;6.40;97.00
10030;DHT22;5055;52.054;8.524;2023-05-24T00:30:49;6.40;97.00
10030;DHT22;5055;52.054;8.524;2023-05-24T00:33:18;6.40;97.00
10030;DHT22;5055;52.054;8.524;2023-05-24T00:35:49;6.40;97.00
10030;DHT22;5055;52.054;8.524;2023-05-24T00:38:23;6.40;97.00
10030;DHT22;5055;52.054;8.524;2023-05-24T00:40:52;6.40;97.00
10030;DHT22;5055;52.054;8.524;2023-05-24T00:43:22;6.40;97.00
10030;DHT22;5055;52.054;8.524;2023-05-24T00:46:06;6.40;97.00
10030;DHT22;5055;52.054;8.524;2023-05-24T00:48:40;6.40;97.00
10030;DHT22;5055;52.054;8.524;2023-05-24T00:51:10;6.40;97.00
10030;DHT22;5055;52.054;8.524;2023-05-24T00:53:41;6.40;97.00
10030;DHT22;5055;52.054;8.524;2023-05-24T00:56:12;6.40;97.00
10030;DHT22;5055;52.054;8.524;2023-05-24T00:58:41;6.30;97.00
10030;DHT22;5055;52.054;8.524;2023-05-24T01:01:10;6.30;97.00
10030;DHT22;5055;52.054;8.524;2023-05-24T01:03:39;6.30;97.00
10030;DHT22;5055;52.054;8.524;2023-05-24T01:06:08;6.30;97.00
10030;DHT22;5055;52.054;8.524;2023-05-24T01:08:49;6.30;97.00
10030;DHT22;5055;52.054;8.524;2023-05-24T01:11:28;6.30;97.00
10030;DHT22;5055;52.054;8.524;2023-05-24T01:14:11;6.20;97.00
10030;DHT22;5055;52.054;8.524;2023-05-24T01:16:48;6.20;97.00
10030;DHT22;5055;52.054;8.524;2023-05-24T01:19:39;6.20;97.00
10030;DHT22;5055;52.054;8.524;2023-05-24T01:22:19;6.20;97.00
10030;DHT22;5055;52.054;8.524;2023-05-24T01:25:02;6.20;97.00
10030;DHT22;5055;52.054;8.524;2023-05-24T01:27:33;6.20;97.00
10030;DHT22;5055;52.054;8.524;2023-05-24T01:30:04;6.20;97.00
10030;DHT22;5055;52.054;8.524;2023-05-24T01:32:32;6.20;97.00
10030;DHT22;5055;52.054;8.524;2023-05-24T01:35:01;6.20;97.00
10030;DHT22;5055;52.054;8.524;2023-05-24T01:37:29;6.10;97.00
10030;DHT22;5055;52.054;8.524;2023-05-24T01:39:58;6.10;97.00
10030;DHT22;5055;52.054;8.524;2023-05-24T01:42:34;6.00;97.00
10030;DHT22;5055;52.054;8.524;2023-05-24T01:45:13;6.00;97.00
10030;DHT22;5055;52.054;8.524;2023-05-24T01:47:51;6.00;97.00
10030;DHT22;5055;52.054;8.524;2023-05-24T01:50:25;6.00;97.00
10030;DHT22;5055;52.054;8.524;2023-05-24T01:52:58;6.00;97.00
10030;DHT22;5055;52.054;8.524;2023-05-24T01:55:30;6.10;97.00
10030;DHT22;5055;52.054;8.524;2023-05-24T01:58:02;6.10;97.00
10030;DHT22;5055;52.054;8.524;2023-05-24T02:00:32;6.00;97.00
10030;DHT22;5055;52.054;8.524;2023-05-24T02:03:01;6.00;97.00
10030;DHT22;5055;52.054;8.524;2023-05-24T02:05:31;6.00;97.00
10030;DHT22;5055;52.054;8.524;2023-05-24T02:07:59;5.90;97.00
10030;DHT22;5055;52.054;8.524;2023-05-24T02:10:28;5.90;97.00
10030;DHT22;5055;52.054;8.524;2023-05-24T02:12:57;5.90;97.00
10030;DHT22;5055;52.054;8.524;2023-05-24T02:15:27;5.80;97.00
10030;DHT22;5055;52.054;8.524;2023-05-24T02:17:56;5.80;97.00
10030;DHT22;5055;52.054;8.524;2023-05-24T02:20:25;5.80;97.00
10030;DHT22;5055;52.054;8.524;2023-05-24T02:22:57;5.70;97.00
10030;DHT22;5055;52.054;8.524;2023-05-24T02:25:26;5.70;97.00
10030;DHT22;5055;52.054;8.524;2023-05-24T02:27:54;5.70;97.00
10030;DHT22;5055;52.054;8.524;2023-05-24T02:30:23;5.60;97.00
10030;DHT22;5055;52.054;8.524;2023-05-24T02:32:53;5.60;97.00
10030;DHT22;5055;52.054;8.524;2023-05-24T02:35:22;5.60;97.00
10030;DHT22;5055;52.054;8.524;2023-05-24T02:37:57;5.50;97.00
10030;DHT22;5055;52.054;8.524;2023-05-24T02:40:36;5.50;97.00
10030;DHT22;5055;52.054;8.524;2023-05-24T02:43:10;5.50;97.00
10030;DHT22;5055;52.054;8.524;2023-05-24T02:45:39;5.50;97.00
10030;DHT22;5055;52.054;8.524;2023-05-24T02:48:09;5.50;97.00
10030;DHT22;5055;52.054;8.524;2023-05-24T02:50:37;5.50;97.00
10030;DHT22;5055;52.054;8.524;2023-05-24T02:53:07;5.40;97.00
10030;DHT22;5055;52.054;8.524;2023-05-24T02:55:40;5.40;97.00
10030;DHT22;5055;52.054;8.524;2023-05-24T02:58:15;5.40;97.00
10030;DHT22;5055;52.054;8.524;2023-05-24T03:00:45;5.40;97.00
10030;DHT22;5055;52.054;8.524;2023-05-24T03:03:20;5.40;97.00
10030;DHT22;5055;52.054;8.524;2023-05-24T03:05:50;5.40;97.00
10030;DHT22;5055;52.054;8.524;2023-05-24T03:08:21;5.40;97.00
10030;DHT22;5055;52.054;8.524;2023-05-24T03:10:59;5.30;97.00
10030;DHT22;5055;52.054;8.524;2023-05-24T03:13:28;5.30;97.00
10030;DHT22;5055;52.054;8.524;2023-05-24T03:16:04;5.30;97.00
10030;DHT22;5055;52.054;8.524;2023-05-24T03:18:34;5.20;97.00
10030;DHT22;5055;52.054;8.524;2023-05-24T03:21:06;5.20;97.00
10030;DHT22;5055;52.054;8.524;2023-05-24T03:23:38;5.20;97.00
10030;DHT22;5055;52.054;8.524;2023-05-24T03:26:06;5.20;97.00
10030;DHT22;5055;52.054;8.524;2023-05-24T03:28:38;5.20;97.00
10030;DHT22;5055;52.054;8.524;2023-05-24T03:31:11;5.30;97.00
10030;DHT22;5055;52.054;8.524;2023-05-24T03:33:41;5.30;97.00
10030;DHT22;5055;52.054;8.524;2023-05-24T03:36:10;5.30;97.00
10030;DHT22;5055;52.054;8.524;2023-05-24T03:38:38;5.30;97.00
10030;DHT22;5055;52.054;8.524;2023-05-24T03:41:06;5.40;97.00
10030;DHT22;5055;52.054;8.524;2023-05-24T03:43:35;5.40;97.00
10030;DHT22;5055;52.054;8.524;2023-05-24T03:46:03;5.40;97.00
10030;DHT22;5055;52.054;8.524;2023-05-24T03:48:32;5.50;97.00
10030;DHT22;5055;52.054;8.524;2023-05-24T03:51:02;5.50;97.00
10030;DHT22;5055;52.054;8.524;2023-05-24T03:53:30;5.60;97.00
10030;DHT22;5055;52.054;8.524;2023-05-24T03:55:59;5.70;97.00
10030;DHT22;5055;52.054;8.524;2023-05-24T03:58:27;5.70;97.00
10030;DHT22;5055;52.054;8.524;2023-05-24T04:00:56;5.70;97.00
10030;DHT22;5055;52.054;8.524;2023-05-24T04:03:24;5.80;97.00
10030;DHT22;5055;52.054;8.524;2023-05-24T04:05:53;5.80;97.00
10030;DHT22;5055;52.054;8.524;2023-05-24T04:08:23;5.80;97.00
10030;DHT22;5055;52.054;8.524;2023-05-24T04:10:52;5.80;97.00
10030;DHT22;5055;52.054;8.524;2023-05-24T04:13:20;5.90;97.00
10030;DHT22;5055;52.054;8.524;2023-05-24T04:15:49;6.00;97.00
10030;DHT22;5055;52.054;8.524;2023-05-24T04:18:20;6.00;97.00
10030;DHT22;5055;52.054;8.524;2023-05-24T04:20:49;6.00;97.00
10030;DHT22;5055;52.054;8.524;2023-05-24T04:23:18;6.10;97.00
10030;DHT22;5055;52.054;8.524;2023-05-24T04:25:48;6.20;97.00
10030;DHT22;5055;52.054;8.524;2023-05-24T04:28:16;6.20;97.00
10030;DHT22;5055;52.054;8.524;2023-05-24T04:30:51;6.30;97.00
10030;DHT22;5055;52.054;8.524;2023-05-24T04:33:19;6.30;97.00
10030;DHT22;5055;52.054;8.524;2023-05-24T04:35:48;6.40;97.00
10030;DHT22;5055;52.054;8.524;2023-05-24T04:38:18;6.40;97.00
10030;DHT22;5055;52.054;8.524;2023-05-24T04:40:49;6.50;97.00
10030;DHT22;5055;52.054;8.524;2023-05-24T04:43:17;6.60;97.00
10030;DHT22;5055;52.054;8.524;2023-05-24T04:45:46;6.70;97.00
10030;DHT22;5055;52.054;8.524;2023-05-24T04:48:14;6.80;97.00
10030;DHT22;5055;52.054;8.524;2023-05-24T04:50:43;6.90;97.00
10030;DHT22;5055;52.054;8.524;2023-05-24T04:53:12;7.00;97.00
10030;DHT22;5055;52.054;8.524;2023-05-24T04:55:41;7.10;97.00
10030;DHT22;5055;52.054;8.524;2023-05-24T04:58:11;7.20;97.00
10030;DHT22;5055;52.054;8.524;2023-05-24T05:00:39;7.30;97.00
10030;DHT22;5055;52.054;8.524;2023-05-24T05:03:08;7.50;97.00
10030;DHT22;5055;52.054;8.524;2023-05-24T05:05:37;7.70;97.00
10030;DHT22;5055;52.054;8.524;2023-05-24T05:08:06;7.80;97.00
10030;DHT22;5055;52.054;8.524;2023-05-24T05:10:35;7.90;97.00
10030;DHT22;5055;52.054;8.524;2023-05-24T05:13:03;8.10;97.00
10030;DHT22;5055;52.054;8.524;2023-05-24T05:15:33;8.20;97.00
10030;DHT22;5055;52.054;8.524;2023-05-24T05:18:01;8.30;97.00
10030;DHT22;5055;52.054;8.524;2023-05-24T05:20:30;8.50;97.00
10030;DHT22;5055;52.054;8.524;2023-05-24T05:22:58;8.60;97.00
10030;DHT22;5055;52.054;8.524;2023-05-24T05:25:27;8.70;97.00
10030;DHT22;5055;52.054;8.524;2023-05-24T05:27:56;8.80;97.00
10030;DHT22;5055;52.054;8.524;2023-05-24T05:30:25;8.90;97.00
10030;DHT22;5055;52.054;8.524;2023-05-24T05:32:55;9.00;97.00
10030;DHT22;5055;52.054;8.524;2023-05-24T05:35:24;9.00;97.00
10030;DHT22;5055;52.054;8.524;2023-05-24T05:37:52;9.00;97.00
10030;DHT22;5055;52.054;8.524;2023-05-24T05:40:21;9.00;97.00
10030;DHT22;5055;52.054;8.524;2023-05-24T05:42:51;9.10;97.00
10030;DHT22;5055;52.054;8.524;2023-05-24T05:45:19;9.10;97.00
10030;DHT22;5055;52.054;8.524;2023-05-24T05:47:48;9.20;97.00
10030;DHT22;5055;52.054;8.524;2023-05-24T05:50:18;9.20;97.00
10030;DHT22;5055;52.054;8.524;2023-05-24T05:52:47;9.30;97.00
10030;DHT22;5055;52.054;8.524;2023-05-24T05:55:15;9.40;97.00
10030;DHT22;5055;52.054;8.524;2023-05-24T05:57:44;9.40;97.00
10030;DHT22;5055;52.054;8.524;2023-05-24T06:00:13;9.40;97.00
10030;DHT22;5055;52.054;8.524;2023-05-24T06:02:42;9.60;97.00
10030;DHT22;5055;52.054;8.524;2023-05-24T06:05:10;9.70;97.00
10030;DHT22;5055;52.054;8.524;2023-05-24T06:07:43;9.80;97.00
10030;DHT22;5055;52.054;8.524;2023-05-24T06:10:12;9.90;97.00
10030;DHT22;5055;52.054;8.524;2023-05-24T06:12:40;9.90;97.00
10030;DHT22;5055;52.054;8.524;2023-05-24T06:15:09;9.90;97.00
10030;DHT22;5055;52.054;8.524;2023-05-24T06:17:38;10.00;97.00
10030;DHT22;5055;52.054;8.524;2023-05-24T06:20:09;10.10;97.00
10030;DHT22;5055;52.054;8.524;2023-05-24T06:22:43;10.10;97.00
10030;DHT22;5055;52.054;8.524;2023-05-24T06:25:12;10.20;97.00
10030;DHT22;5055;52.054;8.524;2023-05-24T06:27:45;10.10;97.00
10030;DHT22;5055;52.054;8.524;2023-05-24T06:30:14;10.20;97.00
10030;DHT22;5055;52.054;8.524;2023-05-24T06:32:42;10.20;97.00
10030;DHT22;5055;52.054;8.524;2023-05-24T06:35:11;10.30;97.00
10030;DHT22;5055;52.054;8.524;2023-05-24T06:37:40;10.30;97.00
10030;DHT22;5055;52.054;8.524;2023-05-24T06:40:11;10.40;97.00
10030;DHT22;5055;52.054;8.524;2023-05-24T06:42:40;10.60;97.00
10030;DHT22;5055;52.054;8.524;2023-05-24T06:45:09;10.70;97.00
10030;DHT22;5055;52.054;8.524;2023-05-24T06:47:38;10.90;97.00
10030;DHT22;5055;52.054;8.524;2023-05-24T06:50:08;11.00;97.00
10030;DHT22;5055;52.054;8.524;2023-05-24T06:52:36;11.10;97.00
10030;DHT22;5055;52.054;8.524;2023-05-24T06:55:05;11.20;97.00
10030;DHT22;5055;52.054;8.524;2023-05-24T06:57:35;11.50;97.00
10030;DHT22;5055;52.054;8.524;2023-05-24T07:00:04;11.50;97.00
10030;DHT22;5055;52.054;8.524;2023-05-24T07:02:38;11.80;97.00
10030;DHT22;5055;52.054;8.524;2023-05-24T07:05:08;12.00;97.00
10030;DHT22;5055;52.054;8.524;2023-05-24T07:07:38;12.20;97.00
10030;DHT22;5055;52.054;8.524;2023-05-24T07:10:08;11.90;97.00
10030;DHT22;5055;52.054;8.524;2023-05-24T07:12:38;11.90;97.00
10030;DHT22;5055;52.054;8.524;2023-05-24T07:15:08;12.20;97.00
10030;DHT22;5055;52.054;8.524;2023-05-24T07:17:37;12.20;97.00
10030;DHT22;5055;52.054;8.524;2023-05-24T07:20:06;12.60;97.00
10030;DHT22;5055;52.054;8.524;2023-05-24T07:22:37;12.80;97.00
10030;DHT22;5055;52.054;8.524;2023-05-24T07:25:07;12.80;97.00
10030;DHT22;5055;52.054;8.524;2023-05-24T07:27:35;13.00;97.00
10030;DHT22;5055;52.054;8.524;2023-05-24T07:30:07;13.10;97.00
10030;DHT22;5055;52.054;8.524;2023-05-24T07:32:55;13.30;97.00
10030;DHT22;5055;52.054;8.524;2023-05-24T07:35:24;13.40;97.00
10030;DHT22;5055;52.054;8.524;2023-05-24T07:37:55;13.20;97.00
10030;DHT22;5055;52.054;8.524;2023-05-24T07:40:24;13.30;97.00
10030;DHT22;5055;52.054;8.524;2023-05-24T07:42:52;13.40;97.00
10030;DHT22;5055;52.054;8.524;2023-05-24T07:45:22;13.50;97.00
10030;DHT22;5055;52.054;8.524;2023-05-24T07:47:51;13.70;97.00
10030;DHT22;5055;52.054;8.524;2023-05-24T07:50:22;13.80;97.00
10030;DHT22;5055;52.054;8.524;2023-05-24T07:52:51;13.80;97.00
10030;DHT22;5055;52.054;8.524;2023-05-24T07:55:20;13.70;97.00
10030;DHT22;5055;52.054;8.524;2023-05-24T07:57:49;13.60;97.00
10030;DHT22;5055;52.054;8.524;2023-05-24T08:00:18;13.80;97.00
10030;DHT22;5055;52.054;8.524;2023-05-24T08:02:49;13.90;97.00
10030;DHT22;5055;52.054;8.524;2023-05-24T08:05:18;14.20;97.00
10030;DHT22;5055;52.054;8.524;2023-05-24T08:07:47;14.40;97.00
10030;DHT22;5055;52.054;8.524;2023-05-24T08:10:15;14.30;97.00
10030;DHT22;5055;52.054;8.524;2023-05-24T08:12:44;14.70;97.00
10030;DHT22;5055;52.054;8.524;2023-05-24T08:15:13;15.40;97.00
10030;DHT22;5055;52.054;8.524;2023-05-24T08:17:42;15.60;97.00
10030;DHT22;5055;52.054;8.524;2023-05-24T08:20:13;15.80;97.00
10030;DHT22;5055;52.054;8.524;2023-05-24T08:22:42;15.80;97.00
10030;DHT22;5055;52.054;8.524;2023-05-24T08:25:11;15.70;97.00
10030;DHT22;5055;52.054;8.524;2023-05-24T08:27:39;15.60;97.00
10030;DHT22;5055;52.054;8.524;2023-05-24T08:30:12;15.50;97.00
10030;DHT22;5055;52.054;8.524;2023-05-24T08:32:41;15.30;97.00
10030;DHT22;5055;52.054;8.524;2023-05-24T08:35:09;14.90;97.00
10030;DHT22;5055;52.054;8.524;2023-05-24T08:37:49;14.50;97.00
10030;DHT22;5055;52.054;8.524;2023-05-24T08:40:18;14.30;97.00
10030;DHT22;5055;52.054;8.524;2023-05-24T08:42:47;14.20;97.00
10030;DHT22;5055;52.054;8.524;2023-05-24T08:45:17;14.00;97.00
10030;DHT22;5055;52.054;8.524;2023-05-24T08:47:46;13.80;97.00
10030;DHT22;5055;52.054;8.524;2023-05-24T08:50:16;13.80;97.00
10030;DHT22;5055;52.054;8.524;2023-05-24T08:52:45;13.80;97.00
10030;DHT22;5055;52.054;8.524;2023-05-24T08:55:15;13.80;97.00
10030;DHT22;5055;52.054;8.524;2023-05-24T08:57:44;13.60;97.00
10030;DHT22;5055;52.054;8.524;2023-05-24T09:00:14;13.50;97.00
10030;DHT22;5055;52.054;8.524;2023-05-24T09:02:43;13.40;97.00
10030;DHT22;5055;52.054;8.524;2023-05-24T09:05:13;13.40;97.00
10030;DHT22;5055;52.054;8.524;2023-05-24T09:07:44;13.30;97.00
10030;DHT22;5055;52.054;8.524;2023-05-24T09:10:12;13.30;97.00
10030;DHT22;5055;52.054;8.524;2023-05-24T09:12:44;13.30;97.00
10030;DHT22;5055;52.054;8.524;2023-05-24T09:15:14;13.30;97.00
10030;DHT22;5055;52.054;8.524;2023-05-24T09:17:43;13.10;97.00
10030;DHT22;5055;52.054;8.524;2023-05-24T09:20:12;13.10;97.00
10030;DHT22;5055;52.054;8.524;2023-05-24T09:22:41;13.20;97.00
10030;DHT22;5055;52.054;8.524;2023-05-24T09:25:12;13.20;97.00
10030;DHT22;5055;52.054;8.524;2023-05-24T09:27:48;13.20;97.00
10030;DHT22;5055;52.054;8.524;2023-05-24T09:30:17;13.20;97.00
10030;DHT22;5055;52.054;8.524;2023-05-24T09:32:56;13.10;97.00
10030;DHT22;5055;52.054;8.524;2023-05-24T09:35:25;12.90;97.00
10030;DHT22;5055;52.054;8.524;2023-05-24T09:37:54;12.90;97.00
10030;DHT22;5055;52.054;8.524;2023-05-24T09:40:27;12.80;97.00
10030;DHT22;5055;52.054;8.524;2023-05-24T09:43:07;12.80;97.00
10030;DHT22;5055;52.054;8.524;2023-05-24T09:45:45;12.90;97.00
10030;DHT22;5055;52.054;8.524;2023-05-24T09:48:16;12.80;97.00
10030;DHT22;5055;52.054;8.524;2023-05-24T09:50:57;12.80;97.00
10030;DHT22;5055;52.054;8.524;2023-05-24T09:53:29;12.80;97.00
10030;DHT22;5055;52.054;8.524;2023-05-24T09:56:01;12.80;97.00
10030;DHT22;5055;52.054;8.524;2023-05-24T09:58:32;12.90;97.00
10030;DHT22;5055;52.054;8.524;2023-05-24T10:01:05;13.00;97.00
10030;DHT22;5055;52.054;8.524;2023-05-24T10:03:35;13.10;97.00
10030;DHT22;5055;52.054;8.524;2023-05-24T10:06:05;13.20;97.00
10030;DHT22;5055;52.054;8.524;2023-05-24T10:08:37;13.30;97.00
10030;DHT22;5055;52.054;8.524;2023-05-24T10:11:06;13.50;97.00
10030;DHT22;5055;52.054;8.524;2023-05-24T10:13:36;13.60;97.00
10030;DHT22;5055;52.054;8.524;2023-05-24T10:16:05;13.70;97.00
10030;DHT22;5055;52.054;8.524;2023-05-24T10:18:37;13.70;97.00
10030;DHT22;5055;52.054;8.524;2023-05-24T10:21:06;13.50;97.00
10030;DHT22;5055;52.054;8.524;2023-05-24T10:23:37;13.40;97.00
10030;DHT22;5055;52.054;8.524;2023-05-24T10:26:07;13.40;97.00
10030;DHT22;5055;52.054;8.524;2023-05-24T10:28:42;13.40;97.00
10030;DHT22;5055;52.054;8.524;2023-05-24T10:31:14;13.50;97.00
10030;DHT22;5055;52.054;8.524;2023-05-24T10:33:45;13.50;97.00
10030;DHT22;5055;52.054;8.524;2023-05-24T10:36:15;13.40;97.00
10030;DHT22;5055;52.054;8.524;2023-05-24T10:38:45;13.50;97.00
10030;DHT22;5055;52.054;8.524;2023-05-24T10:41:14;13.50;97.00
10030;DHT22;5055;52.054;8.524;2023-05-24T10:43:45;13.50;97.00
10030;DHT22;5055;52.054;8.524;2023-05-24T10:46:34;13.50;97.00
10030;DHT22;5055;52.054;8.524;2023-05-24T10:49:02;13.40;97.00
10030;DHT22;5055;52.054;8.524;2023-05-24T10:51:34;13.40;97.00
10030;DHT22;5055;52.054;8.524;2023-05-24T10:54:15;13.30;97.00
10030;DHT22;5055;52.054;8.524;2023-05-24T10:56:45;13.10;97.00
10030;DHT22;5055;52.054;8.524;2023-05-24T10:59:32;13.10;97.00
10030;DHT22;5055;52.054;8.524;2023-05-24T11:02:05;13.10;97.00
10030;DHT22;5055;52.054;8.524;2023-05-24T11:04:37;13.00;97.00
10030;DHT22;5055;52.054;8.524;2023-05-24T11:07:06;12.90;97.00
10030;DHT22;5055;52.054;8.524;2023-05-24T11:09:37;12.90;97.00
10030;DHT22;5055;52.054;8.524;2023-05-24T11:12:14;12.90;97.00
10030;DHT22;5055;52.054;8.524;2023-05-24T11:14:48;13.00;97.00
10030;DHT22;5055;52.054;8.524;2023-05-24T11:17:19;13.00;97.00
10030;DHT22;5055;52.054;8.524;2023-05-24T11:19:50;12.80;97.00
10030;DHT22;5055;52.054;8.524;2023-05-24T11:22:20;12.90;97.00
10030;DHT22;5055;52.054;8.524;2023-05-24T11:24:50;13.00;97.00
10030;DHT22;5055;52.054;8.524;2023-05-24T11:27:19;13.40;97.00
10030;DHT22;5055;52.054;8.524;2023-05-24T11:29:49;13.80;97.00
10030;DHT22;5055;52.054;8.524;2023-05-24T11:32:19;14.30;97.00
10030;DHT22;5055;52.054;8.524;2023-05-24T11:34:50;14.50;97.00
10030;DHT22;5055;52.054;8.524;2023-05-24T11:37:18;14.90;97.00
10030;DHT22;5055;52.054;8.524;2023-05-24T11:40:06;15.00;97.00
10030;DHT22;5055;52.054;8.524;2023-05-24T11:42:37;15.00;97.00
10030;DHT22;5055;52.054;8.524;2023-05-24T11:45:08;15.00;97.00
10030;DHT22;5055;52.054;8.524;2023-05-24T11:47:37;14.80;97.00
10030;DHT22;5055;52.054;8.524;2023-05-24T11:50:06;14.90;97.00
10030;DHT22;5055;52.054;8.524;2023-05-24T11:52:37;15.00;97.00
10030;DHT22;5055;52.054;8.524;2023-05-24T11:55:09;15.10;97.00
10030;DHT22;5055;52.054;8.524;2023-05-24T11:57:47;15.20;97.00
10030;DHT22;5055;52.054;8.524;2023-05-24T12:00:24;15.30;97.00
10030;DHT22;5055;52.054;8.524;2023-05-24T12:02:55;15.30;97.00
10030;DHT22;5055;52.054;8.524;2023-05-24T12:05:27;15.40;97.00
10030;DHT22;5055;52.054;8.524;2023-05-24T12:08:02;15.40;97.00
10030;DHT22;5055;52.054;8.524;2023-05-24T12:10:33;15.50;97.00
10030;DHT22;5055;52.054;8.524;2023-05-24T12:13:02;15.40;97.00
10030;DHT22;5055;52.054;8.524;2023-05-24T12:15:32;15.50;97.00
10030;DHT22;5055;52.054;8.524;2023-05-24T12:18:01;15.80;97.00
10030;DHT22;5055;52.054;8.524;2023-05-24T12:20:29;16.00;97.00
10030;DHT22;5055;52.054;8.524;2023-05-24T12:23:00;16.00;97.00
10030;DHT22;5055;52.054;8.524;2023-05-24T12:25:29;15.90;97.00
10030;DHT22;5055;52.054;8.524;2023-05-24T12:27:57;15.60;97.00
10030;DHT22;5055;52.054;8.524;2023-05-24T12:30:26;15.10;97.00
10030;DHT22;5055;52.054;8.524;2023-05-24T12:32:56;14.90;97.00
10030;DHT22;5055;52.054;8.524;2023-05-24T12:35:25;14.80;97.00
10030;DHT22;5055;52.054;8.524;2023-05-24T12:37:58;14.60;97.00
10030;DHT22;5055;52.054;8.524;2023-05-24T12:40:31;14.60;97.00
10030;DHT22;5055;52.054;8.524;2023-05-24T12:42:59;14.60;97.00
10030;DHT22;5055;52.054;8.524;2023-05-24T12:45:29;14.60;97.00
10030;DHT22;5055;52.054;8.524;2023-05-24T12:48:00;14.50;97.00
10030;DHT22;5055;52.054;8.524;2023-05-24T12:50:29;14.60;97.00
10030;DHT22;5055;52.054;8.524;2023-05-24T12:52:57;14.50;97.00
10030;DHT22;5055;52.054;8.524;2023-05-24T12:55:27;14.50;97.00
10030;DHT22;5055;52.054;8.524;2023-05-24T12:57:56;14.50;97.00
10030;DHT22;5055;52.054;8.524;2023-05-24T13:00:28;14.40;97.00
10030;DHT22;5055;52.054;8.524;2023-05-24T13:02:58;14.40;97.00
10030;DHT22;5055;52.054;8.524;2023-05-24T13:05:28;14.30;97.00
10030;DHT22;5055;52.054;8.524;2023-05-24T13:07:57;14.40;97.00
10030;DHT22;5055;52.054;8.524;2023-05-24T13:10:25;14.40;97.00
10030;DHT22;5055;52.054;8.524;2023-05-24T13:12:54;14.50;97.00
10030;DHT22;5055;52.054;8.524;2023-05-24T13:15:23;14.50;97.00
10030;DHT22;5055;52.054;8.524;2023-05-24T13:17:53;14.50;97.00
10030;DHT22;5055;52.054;8.524;2023-05-24T13:20:23;14.60;97.00
10030;DHT22;5055;52.054;8.524;2023-05-24T13:22:52;14.70;97.00
10030;DHT22;5055;52.054;8.524;2023-05-24T13:25:20;14.70;97.00
10030;DHT22;5055;52.054;8.524;2023-05-24T13:27:49;14.60;97.00
10030;DHT22;5055;52.054;8.524;2023-05-24T13:30:18;14.60;97.00
10030;DHT22;5055;52.054;8.524;2023-05-24T13:32:53;14.50;97.00
10030;DHT22;5055;52.054;8.524;2023-05-24T13:35:24;14.40;97.00
10030;DHT22;5055;52.054;8.524;2023-05-24T13:37:52;14.40;97.00
10030;DHT22;5055;52.054;8.524;2023-05-24T13:40:22;14.30;97.00
10030;DHT22;5055;52.054;8.524;2023-05-24T13:42:51;14.30;97.00
10030;DHT22;5055;52.054;8.524;2023-05-24T13:45:20;14.20;97.00
10030;DHT22;5055;52.054;8.524;2023-05-24T13:47:49;14.20;97.00
10030;DHT22;5055;52.054;8.524;2023-05-24T13:50:19;14.10;97.00
10030;DHT22;5055;52.054;8.524;2023-05-24T13:52:51;14.10;97.00
10030;DHT22;5055;52.054;8.524;2023-05-24T13:55:19;14.10;97.00
10030;DHT22;5055;52.054;8.524;2023-05-24T13:57:48;14.10;97.00
10030;DHT22;5055;52.054;8.524;2023-05-24T14:00:18;14.20;97.00
10030;DHT22;5055;52.054;8.524;2023-05-24T14:02:47;14.20;97.00
10030;DHT22;5055;52.054;8.524;2023-05-24T14:05:17;14.20;97.00
10030;DHT22;5055;52.054;8.524;2023-05-24T14:07:55;14.20;97.00
10030;DHT22;5055;52.054;8.524;2023-05-24T14:10:26;14.30;97.00
10030;DHT22;5055;52.054;8.524;2023-05-24T14:12:55;14.30;97.00
10030;DHT22;5055;52.054;8.524;2023-05-24T14:15:43;14.40;97.00
10030;DHT22;5055;52.054;8.524;2023-05-24T14:18:13;14.50;97.00
10030;DHT22;5055;52.054;8.524;2023-05-24T14:20:42;14.60;97.00
10030;DHT22;5055;52.054;8.524;2023-05-24T14:23:12;14.70;97.00
10030;DHT22;5055;52.054;8.524;2023-05-24T14:25:40;14.80;97.00
10030;DHT22;5055;52.054;8.524;2023-05-24T14:28:11;14.90;97.00
10030;DHT22;5055;52.054;8.524;2023-05-24T14:30:41;14.80;97.00
10030;DHT22;5055;52.054;8.524;2023-05-24T14:33:09;14.80;97.00
10030;DHT22;5055;52.054;8.524;2023-05-24T14:35:38;14.80;97.00
10030;DHT22;5055;52.054;8.524;2023-05-24T14:38:08;14.90;97.00
10030;DHT22;5055;52.054;8.524;2023-05-24T14:40:38;15.00;97.00
10030;DHT22;5055;52.054;8.524;2023-05-24T14:43:07;15.10;97.00
10030;DHT22;5055;52.054;8.524;2023-05-24T14:45:37;15.20;97.00
10030;DHT22;5055;52.054;8.524;2023-05-24T14:48:08;15.30;97.00
10030;DHT22;5055;52.054;8.524;2023-05-24T14:50:38;15.30;97.00
10030;DHT22;5055;52.054;8.524;2023-05-24T14:53:07;15.30;97.00
10030;DHT22;5055;52.054;8.524;2023-05-24T14:55:40;15.30;97.00
10030;DHT22;5055;52.054;8.524;2023-05-24T14:58:11;15.40;97.00
10030;DHT22;5055;52.054;8.524;2023-05-24T15:00:40;15.40;97.00
10030;DHT22;5055;52.054;8.524;2023-05-24T15:03:09;15.40;97.00
10030;DHT22;5055;52.054;8.524;2023-05-24T15:05:39;15.40;97.00
10030;DHT22;5055;52.054;8.524;2023-05-24T15:08:08;15.30;97.00
10030;DHT22;5055;52.054;8.524;2023-05-24T15:10:39;15.10;97.00
10030;DHT22;5055;52.054;8.524;2023-05-24T15:13:11;15.00;97.00
10030;DHT22;5055;52.054;8.524;2023-05-24T15:15:40;15.00;97.00
10030;DHT22;5055;52.054;8.524;2023-05-24T15:18:09;14.90;97.00
10030;DHT22;5055;52.054;8.524;2023-05-24T15:20:38;14.80;97.00
10030;DHT22;5055;52.054;8.524;2023-05-24T15:23:07;14.70;97.00
10030;DHT22;5055;52.054;8.524;2023-05-24T15:25:37;14.50;97.00
10030;DHT22;5055;52.054;8.524;2023-05-24T15:28:06;14.40;97.00
10030;DHT22;5055;52.054;8.524;2023-05-24T15:30:36;14.30;97.00
10030;DHT22;5055;52.054;8.524;2023-05-24T15:33:05;14.30;97.00
10030;DHT22;5055;52.054;8.524;2023-05-24T15:35:34;14.20;97.00
10030;DHT22;5055;52.054;8.524;2023-05-24T15:38:03;14.20;97.00
10030;DHT22;5055;52.054;8.524;2023-05-24T15:40:32;14.20;97.00
10030;DHT22;5055;52.054;8.524;2023-05-24T15:43:00;14.20;97.00
10030;DHT22;5055;52.054;8.524;2023-05-24T15:45:31;14.20;97.00
10030;DHT22;5055;52.054;8.524;2023-05-24T15:48:00;14.20;97.00
10030;DHT22;5055;52.054;8.524;2023-05-24T15:50:30;14.40;97.00
10030;DHT22;5055;52.054;8.524;2023-05-24T15:53:19;14.50;97.00
10030;DHT22;5055;52.054;8.524;2023-05-24T15:55:47;14.70;97.00
10030;DHT22;5055;52.054;8.524;2023-05-24T15:58:16;14.90;97.00
10030;DHT22;5055;52.054;8.524;2023-05-24T16:00:46;15.00;97.00
10030;DHT22;5055;52.054;8.524;2023-05-24T16:03:14;15.00;97.00
10030;DHT22;5055;52.054;8.524;2023-05-24T16:05:43;15.20;97.00
10030;DHT22;5055;52.054;8.524;2023-05-24T16:08:14;15.20;97.00
10030;DHT22;5055;52.054;8.524;2023-05-24T16:10:44;15.30;97.00
10030;DHT22;5055;52.054;8.524;2023-05-24T16:13:12;15.40;97.00